TAF Text Data
IDs:
Format:
Raw Decoded Include METAR

Data at: 0206 UTC 29 Nov 2020

KTUP 282337Z 2900/2924 VRB02KT P6SM SCT150 OVC200
  FM291600 22005KT P6SM -SHRA BKN060 OVC120
  FM291900 35007KT 5SM SHRA VCTS FEW010 OVC025CB
  FM292200 02006KT 6SM -RA BR OVC015